sensor_id;sensor_type;location;lat;lon;timestamp;temperature;humidity
78438;SHT31;67736;51.978;5.656;2023-09-12T00:01:20;23.3;72.2
78438;SHT31;67736;51.978;5.656;2023-09-12T00:03:49;23.2;72.6
78438;SHT31;67736;51.978;5.656;2023-09-12T00:06:21;23.2;72.1
78438;SHT31;67736;51.978;5.656;2023-09-12T00:08:51;23.2;72.0
78438;SHT31;67736;51.978;5.656;2023-09-12T00:11:21;23.2;72.4
78438;SHT31;67736;51.978;5.656;2023-09-12T00:13:54;23.2;72.4
78438;SHT31;67736;51.978;5.656;2023-09-12T00:16:24;23.1;72.5
78438;SHT31;67736;51.978;5.656;2023-09-12T00:18:53;23.1;72.5
78438;SHT31;67736;51.978;5.656;2023-09-12T00:21:23;23.1;72.4
78438;SHT31;67736;51.978;5.656;2023-09-12T00:23:54;23.1;72.6
78438;SHT31;67736;51.978;5.656;2023-09-12T00:26:24;23.0;72.4
78438;SHT31;67736;51.978;5.656;2023-09-12T00:28:55;23.0;72.4
78438;SHT31;67736;51.978;5.656;2023-09-12T00:31:25;23.0;72.5
78438;SHT31;67736;51.978;5.656;2023-09-12T00:33:55;23.0;72.4
78438;SHT31;67736;51.978;5.656;2023-09-12T00:36:26;23.0;72.4
78438;SHT31;67736;51.978;5.656;2023-09-12T00:38:58;23.0;72.6
78438;SHT31;67736;51.978;5.656;2023-09-12T00:41:27;23.0;72.4
78438;SHT31;67736;51.978;5.656;2023-09-12T00:43:57;23.0;72.5
78438;SHT31;67736;51.978;5.656;2023-09-12T00:46:27;22.9;72.7
78438;SHT31;67736;51.978;5.656;2023-09-12T00:48:57;22.9;72.8
78438;SHT31;67736;51.978;5.656;2023-09-12T00:51:31;22.9;72.8
78438;SHT31;67736;51.978;5.656;2023-09-12T00:54:01;22.9;72.9
78438;SHT31;67736;51.978;5.656;2023-09-12T00:56:32;22.9;72.9
78438;SHT31;67736;51.978;5.656;2023-09-12T00:59:02;22.9;73.2
78438;SHT31;67736;51.978;5.656;2023-09-12T01:01:34;22.9;73.2
78438;SHT31;67736;51.978;5.656;2023-09-12T01:04:04;22.9;73.1
78438;SHT31;67736;51.978;5.656;2023-09-12T01:06:33;22.8;73.1
78438;SHT31;67736;51.978;5.656;2023-09-12T01:09:04;22.8;73.3
78438;SHT31;67736;51.978;5.656;2023-09-12T01:11:35;22.8;73.4
78438;SHT31;67736;51.978;5.656;2023-09-12T01:14:06;22.7;73.4
78438;SHT31;67736;51.978;5.656;2023-09-12T01:16:36;22.7;73.7
78438;SHT31;67736;51.978;5.656;2023-09-12T01:19:08;22.6;73.9
78438;SHT31;67736;51.978;5.656;2023-09-12T01:23:08;22.6;73.9
78438;SHT31;67736;51.978;5.656;2023-09-12T01:26:21;22.6;74.2
78438;SHT31;67736;51.978;5.656;2023-09-12T01:28:55;22.6;74.1
78438;SHT31;67736;51.978;5.656;2023-09-12T01:31:27;22.6;74.2
78438;SHT31;67736;51.978;5.656;2023-09-12T01:34:10;22.6;74.1
78438;SHT31;67736;51.978;5.656;2023-09-12T01:36:40;22.6;73.7
78438;SHT31;67736;51.978;5.656;2023-09-12T01:39:12;22.6;73.6
78438;SHT31;67736;51.978;5.656;2023-09-12T01:41:47;22.6;73.5
78438;SHT31;67736;51.978;5.656;2023-09-12T01:44:18;22.6;73.3
78438;SHT31;67736;51.978;5.656;2023-09-12T01:46:50;22.7;73.0
78438;SHT31;67736;51.978;5.656;2023-09-12T01:49:24;22.7;72.7
78438;SHT31;67736;51.978;5.656;2023-09-12T01:51:56;22.7;72.5
78438;SHT31;67736;51.978;5.656;2023-09-12T01:54:27;22.7;72.5
78438;SHT31;67736;51.978;5.656;2023-09-12T01:56:57;22.7;72.4
78438;SHT31;67736;51.978;5.656;2023-09-12T01:59:29;22.7;72.5
78438;SHT31;67736;51.978;5.656;2023-09-12T02:02:00;22.6;72.4
78438;SHT31;67736;51.978;5.656;2023-09-12T02:04:30;22.6;72.3
78438;SHT31;67736;51.978;5.656;2023-09-12T02:07:00;22.6;72.4
78438;SHT31;67736;51.978;5.656;2023-09-12T02:09:29;22.6;72.3
78438;SHT31;67736;51.978;5.656;2023-09-12T02:11:59;22.6;72.3
78438;SHT31;67736;51.978;5.656;2023-09-12T02:14:28;22.6;72.4
78438;SHT31;67736;51.978;5.656;2023-09-12T02:16:58;22.5;72.2
78438;SHT31;67736;51.978;5.656;2023-09-12T02:19:27;22.5;71.8
78438;SHT31;67736;51.978;5.656;2023-09-12T02:21:57;22.5;72.2
78438;SHT31;67736;51.978;5.656;2023-09-12T02:24:28;22.5;72.2
78438;SHT31;67736;51.978;5.656;2023-09-12T02:26:57;22.5;72.3
78438;SHT31;67736;51.978;5.656;2023-09-12T02:29:27;22.4;72.4
78438;SHT31;67736;51.978;5.656;2023-09-12T02:31:57;22.4;72.3
78438;SHT31;67736;51.978;5.656;2023-09-12T02:34:27;22.4;72.3
78438;SHT31;67736;51.978;5.656;2023-09-12T02:36:56;22.3;72.4
78438;SHT31;67736;51.978;5.656;2023-09-12T02:39:26;22.3;72.3
78438;SHT31;67736;51.978;5.656;2023-09-12T02:41:55;22.3;72.1
78438;SHT31;67736;51.978;5.656;2023-09-12T02:44:25;22.3;72.1
78438;SHT31;67736;51.978;5.656;2023-09-12T02:46:55;22.3;72.1
78438;SHT31;67736;51.978;5.656;2023-09-12T02:49:24;22.3;72.0
78438;SHT31;67736;51.978;5.656;2023-09-12T02:51:54;22.2;72.1
78438;SHT31;67736;51.978;5.656;2023-09-12T02:54:23;22.2;71.7
78438;SHT31;67736;51.978;5.656;2023-09-12T02:56:53;22.2;71.8
78438;SHT31;67736;51.978;5.656;2023-09-12T02:59:22;22.2;71.8
78438;SHT31;67736;51.978;5.656;2023-09-12T03:01:52;22.2;71.9
78438;SHT31;67736;51.978;5.656;2023-09-12T03:04:21;22.1;71.2
78438;SHT31;67736;51.978;5.656;2023-09-12T03:06:51;22.1;71.5
78438;SHT31;67736;51.978;5.656;2023-09-12T03:09:20;22.1;71.8
78438;SHT31;67736;51.978;5.656;2023-09-12T03:11:51;22.1;72.0
78438;SHT31;67736;51.978;5.656;2023-09-12T03:14:21;22.0;71.9
78438;SHT31;67736;51.978;5.656;2023-09-12T03:16:50;22.0;72.1
78438;SHT31;67736;51.978;5.656;2023-09-12T03:19:20;22.0;72.1
78438;SHT31;67736;51.978;5.656;2023-09-12T03:21:51;22.0;72.0
78438;SHT31;67736;51.978;5.656;2023-09-12T03:24:21;22.0;72.0
78438;SHT31;67736;51.978;5.656;2023-09-12T03:26:52;22.0;72.0
78438;SHT31;67736;51.978;5.656;2023-09-12T03:29:22;22.0;72.2
78438;SHT31;67736;51.978;5.656;2023-09-12T03:31:51;22.0;71.9
78438;SHT31;67736;51.978;5.656;2023-09-12T03:34:21;21.9;71.8
78438;SHT31;67736;51.978;5.656;2023-09-12T03:36:50;21.9;71.8
78438;SHT31;67736;51.978;5.656;2023-09-12T03:39:20;21.9;72.5
78438;SHT31;67736;51.978;5.656;2023-09-12T03:41:49;21.9;72.9
78438;SHT31;67736;51.978;5.656;2023-09-12T03:44:19;21.9;72.5
78438;SHT31;67736;51.978;5.656;2023-09-12T03:46:48;21.9;72.9
78438;SHT31;67736;51.978;5.656;2023-09-12T03:49:18;21.9;73.0
78438;SHT31;67736;51.978;5.656;2023-09-12T03:51:47;21.8;73.0
78438;SHT31;67736;51.978;5.656;2023-09-12T03:54:17;21.8;73.4
78438;SHT31;67736;51.978;5.656;2023-09-12T03:56:48;21.8;73.5
78438;SHT31;67736;51.978;5.656;2023-09-12T03:59:18;21.8;73.1
78438;SHT31;67736;51.978;5.656;2023-09-12T04:01:49;21.8;73.1
78438;SHT31;67736;51.978;5.656;2023-09-12T04:04:19;21.8;73.2
78438;SHT31;67736;51.978;5.656;2023-09-12T04:06:49;21.8;73.3
78438;SHT31;67736;51.978;5.656;2023-09-12T04:09:18;21.8;73.4
78438;SHT31;67736;51.978;5.656;2023-09-12T04:11:48;21.8;73.4
78438;SHT31;67736;51.978;5.656;2023-09-12T04:14:17;21.8;73.4
78438;SHT31;67736;51.978;5.656;2023-09-12T04:16:47;21.8;73.3
78438;SHT31;67736;51.978;5.656;2023-09-12T04:19:16;21.7;73.3
78438;SHT31;67736;51.978;5.656;2023-09-12T04:21:46;21.7;73.2
78438;SHT31;67736;51.978;5.656;2023-09-12T04:24:18;21.7;73.0
78438;SHT31;67736;51.978;5.656;2023-09-12T04:26:48;21.7;73.2
78438;SHT31;67736;51.978;5.656;2023-09-12T04:29:18;21.7;73.1
78438;SHT31;67736;51.978;5.656;2023-09-12T04:31:47;21.7;72.9
78438;SHT31;67736;51.978;5.656;2023-09-12T04:34:17;21.7;72.9
78438;SHT31;67736;51.978;5.656;2023-09-12T04:36:47;21.6;72.9
78438;SHT31;67736;51.978;5.656;2023-09-12T04:39:16;21.6;72.7
78438;SHT31;67736;51.978;5.656;2023-09-12T04:41:46;21.6;72.7
78438;SHT31;67736;51.978;5.656;2023-09-12T04:44:16;21.6;72.5
78438;SHT31;67736;51.978;5.656;2023-09-12T04:46:45;21.6;72.7
78438;SHT31;67736;51.978;5.656;2023-09-12T04:49:15;21.6;72.6
78438;SHT31;67736;51.978;5.656;2023-09-12T04:51:45;21.6;72.7
78438;SHT31;67736;51.978;5.656;2023-09-12T04:54:16;21.6;73.1
78438;SHT31;67736;51.978;5.656;2023-09-12T04:56:46;21.6;72.6
78438;SHT31;67736;51.978;5.656;2023-09-12T04:59:18;21.6;72.8
78438;SHT31;67736;51.978;5.656;2023-09-12T05:01:47;21.5;73.2
78438;SHT31;67736;51.978;5.656;2023-09-12T05:04:18;21.5;73.3
78438;SHT31;67736;51.978;5.656;2023-09-12T05:06:47;21.5;73.4
78438;SHT31;67736;51.978;5.656;2023-09-12T05:09:17;21.5;73.6
78438;SHT31;67736;51.978;5.656;2023-09-12T05:11:48;21.5;73.8
78438;SHT31;67736;51.978;5.656;2023-09-12T05:14:17;21.4;74.1
78438;SHT31;67736;51.978;5.656;2023-09-12T05:16:47;21.4;74.1
78438;SHT31;67736;51.978;5.656;2023-09-12T05:19:16;21.4;73.9
78438;SHT31;67736;51.978;5.656;2023-09-12T05:21:46;21.4;73.9
78438;SHT31;67736;51.978;5.656;2023-09-12T05:24:17;21.4;74.0
78438;SHT31;67736;51.978;5.656;2023-09-12T05:26:47;21.4;74.3
78438;SHT31;67736;51.978;5.656;2023-09-12T05:29:17;21.4;74.4
78438;SHT31;67736;51.978;5.656;2023-09-12T05:31:46;21.4;74.7
78438;SHT31;67736;51.978;5.656;2023-09-12T05:34:16;21.4;74.9
78438;SHT31;67736;51.978;5.656;2023-09-12T05:36:45;21.4;74.9
78438;SHT31;67736;51.978;5.656;2023-09-12T05:39:15;21.4;75.0
78438;SHT31;67736;51.978;5.656;2023-09-12T05:41:46;21.4;75.1
78438;SHT31;67736;51.978;5.656;2023-09-12T05:44:15;21.4;75.2
78438;SHT31;67736;51.978;5.656;2023-09-12T05:46:47;21.4;75.4
78438;SHT31;67736;51.978;5.656;2023-09-12T05:49:17;21.5;75.4
78438;SHT31;67736;51.978;5.656;2023-09-12T05:51:47;21.5;75.5
78438;SHT31;67736;51.978;5.656;2023-09-12T05:54:16;21.5;75.5
78438;SHT31;67736;51.978;5.656;2023-09-12T05:56:47;21.5;75.5
78438;SHT31;67736;51.978;5.656;2023-09-12T05:59:16;21.5;75.6
78438;SHT31;67736;51.978;5.656;2023-09-12T06:01:46;21.5;75.7
78438;SHT31;67736;51.978;5.656;2023-09-12T06:04:16;21.6;75.7
78438;SHT31;67736;51.978;5.656;2023-09-12T06:06:45;21.6;75.8
78438;SHT31;67736;51.978;5.656;2023-09-12T06:09:15;21.6;75.9
78438;SHT31;67736;51.978;5.656;2023-09-12T06:11:44;21.6;76.2
78438;SHT31;67736;51.978;5.656;2023-09-12T06:14:14;21.6;76.1
78438;SHT31;67736;51.978;5.656;2023-09-12T06:16:43;21.6;76.3
78438;SHT31;67736;51.978;5.656;2023-09-12T06:19:13;21.7;76.2
78438;SHT31;67736;51.978;5.656;2023-09-12T06:21:43;21.7;76.2
78438;SHT31;67736;51.978;5.656;2023-09-12T06:24:15;21.7;76.2
78438;SHT31;67736;51.978;5.656;2023-09-12T06:26:47;21.7;76.2
78438;SHT31;67736;51.978;5.656;2023-09-12T06:29:17;21.8;76.1
78438;SHT31;67736;51.978;5.656;2023-09-12T06:31:47;21.8;76.1
78438;SHT31;67736;51.978;5.656;2023-09-12T06:34:16;21.8;76.3
78438;SHT31;67736;51.978;5.656;2023-09-12T06:36:46;21.8;76.2
78438;SHT31;67736;51.978;5.656;2023-09-12T06:39:15;21.9;76.2
78438;SHT31;67736;51.978;5.656;2023-09-12T06:41:45;21.9;75.9
78438;SHT31;67736;51.978;5.656;2023-09-12T06:44:15;21.9;75.9
78438;SHT31;67736;51.978;5.656;2023-09-12T06:46:44;22.0;75.8
78438;SHT31;67736;51.978;5.656;2023-09-12T06:49:14;22.0;76.1
78438;SHT31;67736;51.978;5.656;2023-09-12T06:51:44;22.0;75.9
78438;SHT31;67736;51.978;5.656;2023-09-12T06:54:13;22.0;75.9
78438;SHT31;67736;51.978;5.656;2023-09-12T06:56:43;22.1;75.6
78438;SHT31;67736;51.978;5.656;2023-09-12T06:59:12;22.1;75.7
78438;SHT31;67736;51.978;5.656;2023-09-12T07:01:42;22.1;75.7
78438;SHT31;67736;51.978;5.656;2023-09-12T07:04:12;22.2;75.5
78438;SHT31;67736;51.978;5.656;2023-09-12T07:06:42;22.2;75.5
78438;SHT31;67736;51.978;5.656;2023-09-12T07:09:12;22.2;75.5
78438;SHT31;67736;51.978;5.656;2023-09-12T07:11:43;22.3;75.2
78438;SHT31;67736;51.978;5.656;2023-09-12T07:14:12;22.3;74.8
78438;SHT31;67736;51.978;5.656;2023-09-12T07:16:42;22.3;74.7
78438;SHT31;67736;51.978;5.656;2023-09-12T07:19:12;22.3;74.7
78438;SHT31;67736;51.978;5.656;2023-09-12T07:21:41;22.3;74.8
78438;SHT31;67736;51.978;5.656;2023-09-12T07:24:11;22.4;74.2
78438;SHT31;67736;51.978;5.656;2023-09-12T07:26:40;22.4;74.6
78438;SHT31;67736;51.978;5.656;2023-09-12T07:29:10;22.4;74.0
78438;SHT31;67736;51.978;5.656;2023-09-12T07:31:40;22.4;74.4
78438;SHT31;67736;51.978;5.656;2023-09-12T07:34:10;22.5;74.5
78438;SHT31;67736;51.978;5.656;2023-09-12T07:36:42;22.5;74.4
78438;SHT31;67736;51.978;5.656;2023-09-12T07:39:11;22.6;74.0
78438;SHT31;67736;51.978;5.656;2023-09-12T07:41:42;22.6;74.1
78438;SHT31;67736;51.978;5.656;2023-09-12T07:44:11;22.6;74.3
78438;SHT31;67736;51.978;5.656;2023-09-12T07:46:43;22.7;74.5
78438;SHT31;67736;51.978;5.656;2023-09-12T07:49:12;22.7;74.0
78438;SHT31;67736;51.978;5.656;2023-09-12T07:51:42;22.7;73.7
78438;SHT31;67736;51.978;5.656;2023-09-12T07:54:11;22.8;73.6
78438;SHT31;67736;51.978;5.656;2023-09-12T07:56:41;22.8;73.6
78438;SHT31;67736;51.978;5.656;2023-09-12T07:59:12;22.8;73.2
78438;SHT31;67736;51.978;5.656;2023-09-12T08:01:42;22.9;73.4
78438;SHT31;67736;51.978;5.656;2023-09-12T08:04:11;22.9;73.1
78438;SHT31;67736;51.978;5.656;2023-09-12T08:06:42;22.9;73.3
78438;SHT31;67736;51.978;5.656;2023-09-12T08:09:12;22.9;73.2
78438;SHT31;67736;51.978;5.656;2023-09-12T08:11:41;22.9;73.3
78438;SHT31;67736;51.978;5.656;2023-09-12T08:14:11;23.0;74.5
78438;SHT31;67736;51.978;5.656;2023-09-12T08:16:41;23.0;74.3
78438;SHT31;67736;51.978;5.656;2023-09-12T08:19:10;23.1;72.6
78438;SHT31;67736;51.978;5.656;2023-09-12T08:21:40;23.2;72.3
78438;SHT31;67736;51.978;5.656;2023-09-12T08:24:09;23.3;71.7
78438;SHT31;67736;51.978;5.656;2023-09-12T08:26:39;23.4;71.7
78438;SHT31;67736;51.978;5.656;2023-09-12T08:29:10;23.4;71.9
78438;SHT31;67736;51.978;5.656;2023-09-12T08:31:40;23.5;71.6
78438;SHT31;67736;51.978;5.656;2023-09-12T08:34:09;23.6;71.5
78438;SHT31;67736;51.978;5.656;2023-09-12T08:36:39;23.7;70.5
78438;SHT31;67736;51.978;5.656;2023-09-12T08:39:14;23.8;70.3
78438;SHT31;67736;51.978;5.656;2023-09-12T08:41:44;23.9;70.8
78438;SHT31;67736;51.978;5.656;2023-09-12T08:44:17;24.0;70.0
78438;SHT31;67736;51.978;5.656;2023-09-12T08:46:47;24.2;68.3
78438;SHT31;67736;51.978;5.656;2023-09-12T08:49:17;24.3;68.9
78438;SHT31;67736;51.978;5.656;2023-09-12T08:51:47;24.5;67.9
78438;SHT31;67736;51.978;5.656;2023-09-12T08:54:16;24.6;66.1
78438;SHT31;67736;51.978;5.656;2023-09-12T08:56:48;24.7;65.5
78438;SHT31;67736;51.978;5.656;2023-09-12T08:59:20;24.9;65.8
78438;SHT31;67736;51.978;5.656;2023-09-12T09:01:50;25.0;65.9
78438;SHT31;67736;51.978;5.656;2023-09-12T09:04:25;25.1;63.8
78438;SHT31;67736;51.978;5.656;2023-09-12T09:06:57;25.3;63.3
78438;SHT31;67736;51.978;5.656;2023-09-12T09:09:28;25.4;63.3
78438;SHT31;67736;51.978;5.656;2023-09-12T09:11:57;25.6;63.0
78438;SHT31;67736;51.978;5.656;2023-09-12T09:14:30;25.7;62.7
78438;SHT31;67736;51.978;5.656;2023-09-12T09:17:00;25.9;62.0
78438;SHT31;67736;51.978;5.656;2023-09-12T09:19:42;26.1;60.3
78438;SHT31;67736;51.978;5.656;2023-09-12T09:22:12;26.3;59.9
78438;SHT31;67736;51.978;5.656;2023-09-12T09:24:42;26.5;59.3
78438;SHT31;67736;51.978;5.656;2023-09-12T09:27:33;26.7;59.5
78438;SHT31;67736;51.978;5.656;2023-09-12T09:30:04;26.8;58.0
78438;SHT31;67736;51.978;5.656;2023-09-12T09:32:34;27.0;58.4
78438;SHT31;67736;51.978;5.656;2023-09-12T09:35:04;27.1;58.6
78438;SHT31;67736;51.978;5.656;2023-09-12T09:37:34;27.3;57.6
78438;SHT31;67736;51.978;5.656;2023-09-12T09:40:05;27.5;56.4
78438;SHT31;67736;51.978;5.656;2023-09-12T09:42:37;27.7;56.3
78438;SHT31;67736;51.978;5.656;2023-09-12T09:45:07;27.9;55.1
78438;SHT31;67736;51.978;5.656;2023-09-12T09:47:37;28.1;53.6
78438;SHT31;67736;51.978;5.656;2023-09-12T09:50:07;28.2;54.0
78438;SHT31;67736;51.978;5.656;2023-09-12T09:52:37;28.3;53.5
78438;SHT31;67736;51.978;5.656;2023-09-12T09:55:10;28.4;53.2
78438;SHT31;67736;51.978;5.656;2023-09-12T09:57:42;28.5;51.7
78438;SHT31;67736;51.978;5.656;2023-09-12T10:00:12;28.6;53.1
78438;SHT31;67736;51.978;5.656;2023-09-12T10:02:45;28.7;53.4
78438;SHT31;67736;51.978;5.656;2023-09-12T10:05:18;28.8;52.8
78438;SHT31;67736;51.978;5.656;2023-09-12T10:07:50;28.9;53.0
78438;SHT31;67736;51.978;5.656;2023-09-12T10:10:21;29.0;52.1
78438;SHT31;67736;51.978;5.656;2023-09-12T10:12:56;29.1;51.8
78438;SHT31;67736;51.978;5.656;2023-09-12T10:15:29;29.1;52.2
78438;SHT31;67736;51.978;5.656;2023-09-12T10:18:02;29.2;52.2
78438;SHT31;67736;51.978;5.656;2023-09-12T10:20:38;29.2;52.0
78438;SHT31;67736;51.978;5.656;2023-09-12T10:23:15;29.2;52.3
78438;SHT31;67736;51.978;5.656;2023-09-12T10:25:49;29.2;53.2
78438;SHT31;67736;51.978;5.656;2023-09-12T10:28:19;29.2;52.1
78438;SHT31;67736;51.978;5.656;2023-09-12T10:30:51;29.2;52.2
78438;SHT31;67736;51.978;5.656;2023-09-12T10:33:21;29.2;51.9
78438;SHT31;67736;51.978;5.656;2023-09-12T10:35:53;29.2;51.0
78438;SHT31;67736;51.978;5.656;2023-09-12T10:38:23;29.3;51.1
78438;SHT31;67736;51.978;5.656;2023-09-12T10:40:56;29.3;51.4
78438;SHT31;67736;51.978;5.656;2023-09-12T10:43:30;29.3;52.2
78438;SHT31;67736;51.978;5.656;2023-09-12T10:46:03;29.3;52.3
78438;SHT31;67736;51.978;5.656;2023-09-12T10:48:34;29.3;50.9
78438;SHT31;67736;51.978;5.656;2023-09-12T10:51:05;29.3;51.3
78438;SHT31;67736;51.978;5.656;2023-09-12T10:53:36;29.3;51.0
78438;SHT31;67736;51.978;5.656;2023-09-12T10:56:17;29.3;51.5
78438;SHT31;67736;51.978;5.656;2023-09-12T10:59:13;29.3;51.5
78438;SHT31;67736;51.978;5.656;2023-09-12T11:01:44;29.2;50.5
78438;SHT31;67736;51.978;5.656;2023-09-12T11:04:32;29.1;51.2
78438;SHT31;67736;51.978;5.656;2023-09-12T11:07:32;29.1;51.4
78438;SHT31;67736;51.978;5.656;2023-09-12T11:10:21;29.1;51.4
78438;SHT31;67736;51.978;5.656;2023-09-12T11:12:53;29.0;51.0
78438;SHT31;67736;51.978;5.656;2023-09-12T11:15:26;29.0;51.8
78438;SHT31;67736;51.978;5.656;2023-09-12T11:18:04;28.9;51.4
78438;SHT31;67736;51.978;5.656;2023-09-12T11:21:01;28.8;52.2
78438;SHT31;67736;51.978;5.656;2023-09-12T11:23:31;28.7;51.6
78438;SHT31;67736;51.978;5.656;2023-09-12T11:26:07;28.6;51.7
78438;SHT31;67736;51.978;5.656;2023-09-12T11:28:39;28.6;52.3
78438;SHT31;67736;51.978;5.656;2023-09-12T11:31:12;28.5;52.2
78438;SHT31;67736;51.978;5.656;2023-09-12T11:33:46;28.4;52.7
78438;SHT31;67736;51.978;5.656;2023-09-12T11:36:18;28.4;52.8
78438;SHT31;67736;51.978;5.656;2023-09-12T11:38:50;28.3;52.3
78438;SHT31;67736;51.978;5.656;2023-09-12T11:41:40;28.3;52.0
78438;SHT31;67736;51.978;5.656;2023-09-12T11:44:11;28.2;52.8
78438;SHT31;67736;51.978;5.656;2023-09-12T11:46:43;28.2;53.5
78438;SHT31;67736;51.978;5.656;2023-09-12T11:49:14;28.2;53.8
78438;SHT31;67736;51.978;5.656;2023-09-12T11:51:51;28.2;53.0
78438;SHT31;67736;51.978;5.656;2023-09-12T11:54:25;28.1;54.0
78438;SHT31;67736;51.978;5.656;2023-09-12T11:56:55;28.1;52.7
78438;SHT31;67736;51.978;5.656;2023-09-12T11:59:29;28.1;53.8
78438;SHT31;67736;51.978;5.656;2023-09-12T12:01:58;28.1;53.9
78438;SHT31;67736;51.978;5.656;2023-09-12T12:04:28;28.1;53.5
78438;SHT31;67736;51.978;5.656;2023-09-12T12:06:58;28.2;53.0
78438;SHT31;67736;51.978;5.656;2023-09-12T12:09:28;28.1;52.4
78438;SHT31;67736;51.978;5.656;2023-09-12T12:12:03;28.1;52.5
78438;SHT31;67736;51.978;5.656;2023-09-12T12:14:35;28.1;53.0
78438;SHT31;67736;51.978;5.656;2023-09-12T12:17:09;28.1;51.7
78438;SHT31;67736;51.978;5.656;2023-09-12T12:19:39;28.1;51.0
78438;SHT31;67736;51.978;5.656;2023-09-12T12:22:09;28.1;51.0
78438;SHT31;67736;51.978;5.656;2023-09-12T12:24:41;28.0;51.5
78438;SHT31;67736;51.978;5.656;2023-09-12T12:27:11;28.0;50.7
78438;SHT31;67736;51.978;5.656;2023-09-12T12:29:41;28.0;52.4
78438;SHT31;67736;51.978;5.656;2023-09-12T12:32:17;28.0;51.0
78438;SHT31;67736;51.978;5.656;2023-09-12T12:34:49;28.0;51.6
78438;SHT31;67736;51.978;5.656;2023-09-12T12:37:19;28.0;51.6
78438;SHT31;67736;51.978;5.656;2023-09-12T12:39:49;28.0;51.3
78438;SHT31;67736;51.978;5.656;2023-09-12T12:42:19;28.0;51.4
78438;SHT31;67736;51.978;5.656;2023-09-12T12:44:54;28.0;50.9
78438;SHT31;67736;51.978;5.656;2023-09-12T12:47:25;28.0;51.4
78438;SHT31;67736;51.978;5.656;2023-09-12T12:49:56;27.9;49.9
78438;SHT31;67736;51.978;5.656;2023-09-12T12:52:26;27.9;50.4
78438;SHT31;67736;51.978;5.656;2023-09-12T12:55:07;28.0;50.9
78438;SHT31;67736;51.978;5.656;2023-09-12T12:57:38;28.0;50.6
78438;SHT31;67736;51.978;5.656;2023-09-12T13:00:10;28.0;48.7
78438;SHT31;67736;51.978;5.656;2023-09-12T13:02:42;27.9;48.3
78438;SHT31;67736;51.978;5.656;2023-09-12T13:05:24;27.9;49.0
78438;SHT31;67736;51.978;5.656;2023-09-12T13:07:54;27.9;50.7
78438;SHT31;67736;51.978;5.656;2023-09-12T13:10:24;27.9;50.2
78438;SHT31;67736;51.978;5.656;2023-09-12T13:12:54;27.9;50.1
78438;SHT31;67736;51.978;5.656;2023-09-12T13:15:24;27.9;50.7
78438;SHT31;67736;51.978;5.656;2023-09-12T13:17:53;27.9;51.2
78438;SHT31;67736;51.978;5.656;2023-09-12T13:20:25;27.9;50.2
78438;SHT31;67736;51.978;5.656;2023-09-12T13:22:54;27.9;50.6
78438;SHT31;67736;51.978;5.656;2023-09-12T13:25:25;27.9;51.7
78438;SHT31;67736;51.978;5.656;2023-09-12T13:27:54;27.9;50.0
78438;SHT31;67736;51.978;5.656;2023-09-12T13:30:24;28.0;49.8
78438;SHT31;67736;51.978;5.656;2023-09-12T13:32:53;28.0;50.3
78438;SHT31;67736;51.978;5.656;2023-09-12T13:35:23;28.1;49.6
78438;SHT31;67736;51.978;5.656;2023-09-12T13:37:52;28.2;47.9
78438;SHT31;67736;51.978;5.656;2023-09-12T13:40:22;28.2;47.6
78438;SHT31;67736;51.978;5.656;2023-09-12T13:42:51;28.3;46.6
78438;SHT31;67736;51.978;5.656;2023-09-12T13:45:21;28.4;47.8
78438;SHT31;67736;51.978;5.656;2023-09-12T13:47:50;28.4;49.3
78438;SHT31;67736;51.978;5.656;2023-09-12T13:50:20;28.5;49.1
78438;SHT31;67736;51.978;5.656;2023-09-12T13:52:51;28.5;48.0
78438;SHT31;67736;51.978;5.656;2023-09-12T13:55:20;28.5;49.5
78438;SHT31;67736;51.978;5.656;2023-09-12T13:57:50;28.6;48.5
78438;SHT31;67736;51.978;5.656;2023-09-12T14:00:19;28.6;47.0
78438;SHT31;67736;51.978;5.656;2023-09-12T14:02:49;28.6;47.2
78438;SHT31;67736;51.978;5.656;2023-09-12T14:05:19;28.6;46.5
78438;SHT31;67736;51.978;5.656;2023-09-12T14:07:48;28.6;47.6
78438;SHT31;67736;51.978;5.656;2023-09-12T14:10:18;28.6;46.8
78438;SHT31;67736;51.978;5.656;2023-09-12T14:12:48;28.6;47.2
78438;SHT31;67736;51.978;5.656;2023-09-12T14:15:17;28.6;47.5
78438;SHT31;67736;51.978;5.656;2023-09-12T14:17:50;28.6;46.9
78438;SHT31;67736;51.978;5.656;2023-09-12T14:20:20;28.6;46.8
78438;SHT31;67736;51.978;5.656;2023-09-12T14:22:49;28.6;47.0
78438;SHT31;67736;51.978;5.656;2023-09-12T14:25:19;28.6;45.3
78438;SHT31;67736;51.978;5.656;2023-09-12T14:27:48;28.6;47.1
78438;SHT31;67736;51.978;5.656;2023-09-12T14:30:20;28.6;47.3
78438;SHT31;67736;51.978;5.656;2023-09-12T14:32:50;28.6;48.6
78438;SHT31;67736;51.978;5.656;2023-09-12T14:35:19;28.6;48.9
78438;SHT31;67736;51.978;5.656;2023-09-12T14:37:49;28.5;49.7
78438;SHT31;67736;51.978;5.656;2023-09-12T14:40:18;28.5;49.5
78438;SHT31;67736;51.978;5.656;2023-09-12T14:42:50;28.5;49.5
78438;SHT31;67736;51.978;5.656;2023-09-12T14:45:19;28.5;49.2
78438;SHT31;67736;51.978;5.656;2023-09-12T14:47:49;28.5;49.6
78438;SHT31;67736;51.978;5.656;2023-09-12T14:50:18;28.4;50.9
78438;SHT31;67736;51.978;5.656;2023-09-12T14:52:48;28.4;50.7
78438;SHT31;67736;51.978;5.656;2023-09-12T14:55:21;28.4;50.2
78438;SHT31;67736;51.978;5.656;2023-09-12T14:57:50;28.4;49.8
78438;SHT31;67736;51.978;5.656;2023-09-12T15:00:24;28.4;49.7
78438;SHT31;67736;51.978;5.656;2023-09-12T15:02:54;28.4;50.1
78438;SHT31;67736;51.978;5.656;2023-09-12T15:05:23;28.3;49.1
78438;SHT31;67736;51.978;5.656;2023-09-12T15:07:52;28.3;50.3
78438;SHT31;67736;51.978;5.656;2023-09-12T15:10:24;28.2;50.2
78438;SHT31;67736;51.978;5.656;2023-09-12T15:12:54;28.2;50.6
78438;SHT31;67736;51.978;5.656;2023-09-12T15:15:23;28.2;50.4
78438;SHT31;67736;51.978;5.656;2023-09-12T15:17:54;28.1;49.9
78438;SHT31;67736;51.978;5.656;2023-09-12T15:20:24;28.1;50.3
78438;SHT31;67736;51.978;5.656;2023-09-12T15:22:54;28.1;49.7
78438;SHT31;67736;51.978;5.656;2023-09-12T15:25:24;28.0;50.8
78438;SHT31;67736;51.978;5.656;2023-09-12T15:27:53;28.0;51.3
78438;SHT31;67736;51.978;5.656;2023-09-12T15:30:23;28.0;50.7
78438;SHT31;67736;51.978;5.656;2023-09-12T15:32:52;28.0;51.0
78438;SHT31;67736;51.978;5.656;2023-09-12T15:35:22;27.9;52.0
78438;SHT31;67736;51.978;5.656;2023-09-12T15:37:51;27.9;52.5
78438;SHT31;67736;51.978;5.656;2023-09-12T15:40:22;27.9;53.1
78438;SHT31;67736;51.978;5.656;2023-09-12T15:42:52;27.8;53.8
78438;SHT31;67736;51.978;5.656;2023-09-12T15:45:21;27.8;54.5
78438;SHT31;67736;51.978;5.656;2023-09-12T15:47:51;27.7;54.2
78438;SHT31;67736;51.978;5.656;2023-09-12T15:50:21;27.7;54.6
78438;SHT31;67736;51.978;5.656;2023-09-12T15:52:52;27.6;54.4
78438;SHT31;67736;51.978;5.656;2023-09-12T15:55:21;27.6;55.1
78438;SHT31;67736;51.978;5.656;2023-09-12T15:57:54;27.5;55.3
78438;SHT31;67736;51.978;5.656;2023-09-12T16:00:23;27.5;55.1
78438;SHT31;67736;51.978;5.656;2023-09-12T16:02:54;27.4;55.2
78438;SHT31;67736;51.978;5.656;2023-09-12T16:05:23;27.4;54.8
78438;SHT31;67736;51.978;5.656;2023-09-12T16:07:53;27.4;55.0
78438;SHT31;67736;51.978;5.656;2023-09-12T16:10:22;27.3;55.0
78438;SHT31;67736;51.978;5.656;2023-09-12T16:12:52;27.2;55.1
78438;SHT31;67736;51.978;5.656;2023-09-12T16:15:21;27.2;55.6
78438;SHT31;67736;51.978;5.656;2023-09-12T16:17:51;27.1;55.9
78438;SHT31;67736;51.978;5.656;2023-09-12T16:20:22;27.1;55.4
78438;SHT31;67736;51.978;5.656;2023-09-12T16:22:51;27.0;55.5
78438;SHT31;67736;51.978;5.656;2023-09-12T16:25:21;27.0;56.2
78438;SHT31;67736;51.978;5.656;2023-09-12T16:27:50;26.9;56.3